sensor_id;sensor_type;location;lat;lon;timestamp;pressure;altitude;pressure_sealevel;temperature;humidity
72900;BME280;61043;52.036;5.566;2022-07-10T00:02:20;102820.19;;;17.43;60.73
72900;BME280;61043;52.036;5.566;2022-07-10T00:04:46;102829.63;;;17.36;61.02
72900;BME280;61043;52.036;5.566;2022-07-10T00:07:13;102825.97;;;17.37;61.04
72900;BME280;61043;52.036;5.566;2022-07-10T00:09:39;102825.97;;;17.37;61.32
72900;BME280;61043;52.036;5.566;2022-07-10T00:12:06;102824.44;;;17.33;61.03
72900;BME280;61043;52.036;5.566;2022-07-10T00:14:33;102824.56;;;17.31;61.16
72900;BME280;61043;52.036;5.566;2022-07-10T00:16:59;102820.06;;;17.32;61.13
72900;BME280;61043;52.036;5.566;2022-07-10T00:19:26;102821.25;;;17.40;61.32
72900;BME280;61043;52.036;5.566;2022-07-10T00:21:53;102816.78;;;17.41;61.02
72900;BME280;61043;52.036;5.566;2022-07-10T00:24:19;102790.00;;;17.41;60.90
72900;BME280;61043;52.036;5.566;2022-07-10T00:26:46;102803.38;;;17.41;60.68
72900;BME280;61043;52.036;5.566;2022-07-10T00:29:14;102802.22;;;17.45;61.03
72900;BME280;61043;52.036;5.566;2022-07-10T00:31:41;102807.44;;;17.34;60.88
72900;BME280;61043;52.036;5.566;2022-07-10T00:34:07;102787.16;;;17.30;61.19
72900;BME280;61043;52.036;5.566;2022-07-10T00:36:34;102783.53;;;17.31;61.25
72900;BME280;61043;52.036;5.566;2022-07-10T00:39:02;102795.53;;;17.38;60.97
72900;BME280;61043;52.036;5.566;2022-07-10T00:41:29;102801.66;;;17.40;61.12
72900;BME280;61043;52.036;5.566;2022-07-10T00:43:57;102799.66;;;17.43;60.97
72900;BME280;61043;52.036;5.566;2022-07-10T00:46:25;102796.16;;;17.29;61.08
72900;BME280;61043;52.036;5.566;2022-07-10T00:48:52;102802.09;;;17.19;61.33
72900;BME280;61043;52.036;5.566;2022-07-10T00:51:20;102806.41;;;17.22;61.57
72900;BME280;61043;52.036;5.566;2022-07-10T00:53:48;102796.03;;;17.03;61.79
72900;BME280;61043;52.036;5.566;2022-07-10T00:56:24;102799.97;;;16.97;62.03
72900;BME280;61043;52.036;5.566;2022-07-10T00:58:51;102795.00;;;16.91;62.53
72900;BME280;61043;52.036;5.566;2022-07-10T01:01:18;102768.47;;;16.74;62.84
72900;BME280;61043;52.036;5.566;2022-07-10T01:03:46;102801.03;;;16.95;62.67
72900;BME280;61043;52.036;5.566;2022-07-10T01:06:13;102796.94;;;16.89;63.08
72900;BME280;61043;52.036;5.566;2022-07-10T01:08:41;102787.19;;;16.88;62.91
72900;BME280;61043;52.036;5.566;2022-07-10T01:11:10;102780.97;;;16.88;62.76
72900;BME280;61043;52.036;5.566;2022-07-10T01:13:38;102771.53;;;16.82;62.76
72900;BME280;61043;52.036;5.566;2022-07-10T01:16:05;102781.53;;;16.93;63.14
72900;BME280;61043;52.036;5.566;2022-07-10T01:18:32;102785.28;;;16.90;62.99
72900;BME280;61043;52.036;5.566;2022-07-10T01:20:58;102784.41;;;16.90;62.73
72900;BME280;61043;52.036;5.566;2022-07-10T01:23:25;102779.47;;;16.84;63.27
72900;BME280;61043;52.036;5.566;2022-07-10T01:25:52;102780.19;;;16.86;62.93
72900;BME280;61043;52.036;5.566;2022-07-10T01:28:20;102781.19;;;16.85;63.20
72900;BME280;61043;52.036;5.566;2022-07-10T01:30:48;102769.22;;;16.62;63.86
72900;BME280;61043;52.036;5.566;2022-07-10T01:33:15;102741.72;;;16.59;63.36
72900;BME280;61043;52.036;5.566;2022-07-10T01:35:41;102774.22;;;16.82;63.46
72900;BME280;61043;52.036;5.566;2022-07-10T01:38:08;102753.25;;;16.74;63.71
72900;BME280;61043;52.036;5.566;2022-07-10T01:40:35;102762.66;;;16.81;63.35
72900;BME280;61043;52.036;5.566;2022-07-10T01:43:01;102771.53;;;16.82;63.52
72900;BME280;61043;52.036;5.566;2022-07-10T01:45:28;102768.47;;;16.74;63.71
72900;BME280;61043;52.036;5.566;2022-07-10T01:47:55;102761.13;;;16.63;63.46
72900;BME280;61043;52.036;5.566;2022-07-10T01:50:23;102768.94;;;16.52;64.31
72900;BME280;61043;52.036;5.566;2022-07-10T01:52:50;102754.63;;;16.38;64.40
72900;BME280;61043;52.036;5.566;2022-07-10T01:55:16;102758.06;;;16.41;64.40
72900;BME280;61043;52.036;5.566;2022-07-10T01:57:43;102766.06;;;16.55;64.37
72900;BME280;61043;52.036;5.566;2022-07-10T02:00:10;102763.50;;;16.53;64.46
72900;BME280;61043;52.036;5.566;2022-07-10T02:02:37;102766.66;;;16.60;64.39
72900;BME280;61043;52.036;5.566;2022-07-10T02:05:04;102764.09;;;16.58;63.95
72900;BME280;61043;52.036;5.566;2022-07-10T02:07:31;102757.13;;;16.56;64.18
72900;BME280;61043;52.036;5.566;2022-07-10T02:09:57;102759.09;;;16.52;64.38
72900;BME280;61043;52.036;5.566;2022-07-10T02:12:25;102757.47;;;16.50;64.19
72900;BME280;61043;52.036;5.566;2022-07-10T02:14:52;102752.34;;;16.47;64.47
72900;BME280;61043;52.036;5.566;2022-07-10T02:17:18;102734.19;;;16.23;64.43
72900;BME280;61043;52.036;5.566;2022-07-10T02:19:45;102753.00;;;16.36;64.77
72900;BME280;61043;52.036;5.566;2022-07-10T02:22:11;102742.91;;;16.27;65.18
72900;BME280;61043;52.036;5.566;2022-07-10T02:24:38;102742.72;;;16.30;65.02
72900;BME280;61043;52.036;5.566;2022-07-10T02:27:04;102746.81;;;16.35;64.97
72900;BME280;61043;52.036;5.566;2022-07-10T02:29:31;102748.53;;;16.36;64.73
72900;BME280;61043;52.036;5.566;2022-07-10T02:31:58;102735.16;;;16.36;64.84
72900;BME280;61043;52.036;5.566;2022-07-10T02:34:24;102726.28;;;16.36;64.61
72900;BME280;61043;52.036;5.566;2022-07-10T02:36:52;102738.31;;;16.43;64.96
72900;BME280;61043;52.036;5.566;2022-07-10T02:39:20;102723.53;;;16.37;64.85
72900;BME280;61043;52.036;5.566;2022-07-10T02:41:49;102733.81;;;16.44;65.13
72900;BME280;61043;52.036;5.566;2022-07-10T02:44:16;102725.03;;;16.42;64.79
72900;BME280;61043;52.036;5.566;2022-07-10T02:46:42;102722.91;;;16.47;64.59
72900;BME280;61043;52.036;5.566;2022-07-10T02:49:09;102726.94;;;16.54;64.68
72900;BME280;61043;52.036;5.566;2022-07-10T02:51:36;102725.31;;;16.51;64.33
72900;BME280;61043;52.036;5.566;2022-07-10T02:54:02;102743.25;;;16.49;64.60
72900;BME280;61043;52.036;5.566;2022-07-10T02:56:29;102735.91;;;16.38;65.00
72900;BME280;61043;52.036;5.566;2022-07-10T02:58:56;102742.88;;;16.41;65.03
72900;BME280;61043;52.036;5.566;2022-07-10T03:01:22;102727.53;;;16.30;65.00
72900;BME280;61043;52.036;5.566;2022-07-10T03:03:49;102739.06;;;16.31;65.22
72900;BME280;61043;52.036;5.566;2022-07-10T03:06:16;102718.38;;;16.06;65.75
72900;BME280;61043;52.036;5.566;2022-07-10T03:08:42;102727.50;;;16.16;65.90
72900;BME280;61043;52.036;5.566;2022-07-10T03:11:09;102740.69;;;16.33;65.48
72900;BME280;61043;52.036;5.566;2022-07-10T03:13:36;102734.00;;;16.41;65.64
72900;BME280;61043;52.036;5.566;2022-07-10T03:16:02;102732.09;;;16.43;65.40
72900;BME280;61043;52.036;5.566;2022-07-10T03:18:29;102732.97;;;16.43;65.14
72900;BME280;61043;52.036;5.566;2022-07-10T03:20:56;102708.91;;;16.29;65.46
72900;BME280;61043;52.036;5.566;2022-07-10T03:23:23;102744.59;;;16.56;65.01
72900;BME280;61043;52.036;5.566;2022-07-10T03:25:49;102750.16;;;16.53;65.15
72900;BME280;61043;52.036;5.566;2022-07-10T03:28:16;102749.28;;;16.53;65.28
72900;BME280;61043;52.036;5.566;2022-07-10T03:30:43;102738.59;;;16.38;65.70
72900;BME280;61043;52.036;5.566;2022-07-10T03:33:09;102734.59;;;16.46;65.63
72900;BME280;61043;52.036;5.566;2022-07-10T03:35:36;102725.22;;;16.38;65.91
72900;BME280;61043;52.036;5.566;2022-07-10T03:38:02;102729.31;;;16.44;65.46
72900;BME280;61043;52.036;5.566;2022-07-10T03:40:29;102701.84;;;16.28;65.63
72900;BME280;61043;52.036;5.566;2022-07-10T03:42:55;102700.03;;;16.28;65.47
72900;BME280;61043;52.036;5.566;2022-07-10T03:45:22;102728.00;;;16.37;65.76
72900;BME280;61043;52.036;5.566;2022-07-10T03:47:49;102715.59;;;16.36;65.46
72900;BME280;61043;52.036;5.566;2022-07-10T03:50:15;102728.28;;;16.47;65.90
72900;BME280;61043;52.036;5.566;2022-07-10T03:52:42;102728.47;;;16.44;65.90
72900;BME280;61043;52.036;5.566;2022-07-10T03:55:10;102727.81;;;16.40;65.82
72900;BME280;61043;52.036;5.566;2022-07-10T03:57:37;102731.72;;;16.49;65.56
72900;BME280;61043;52.036;5.566;2022-07-10T04:00:24;102731.50;;;16.52;66.28
72900;BME280;61043;52.036;5.566;2022-07-10T04:02:58;102729.59;;;16.54;65.63
72900;BME280;61043;52.036;5.566;2022-07-10T04:05:27;102726.16;;;16.52;66.19
72900;BME280;61043;52.036;5.566;2022-07-10T04:07:55;102718.63;;;16.44;66.53
72900;BME280;61043;52.036;5.566;2022-07-10T04:10:24;102704.19;;;16.47;65.84
72900;BME280;61043;52.036;5.566;2022-07-10T04:12:51;102707.16;;;16.56;65.71
72900;BME280;61043;52.036;5.566;2022-07-10T04:15:18;102718.72;;;16.57;65.92
72900;BME280;61043;52.036;5.566;2022-07-10T04:17:45;102703.91;;;16.51;65.51
72900;BME280;61043;52.036;5.566;2022-07-10T04:20:12;102723.19;;;16.56;65.60
72900;BME280;61043;52.036;5.566;2022-07-10T04:22:39;102715.19;;;16.56;65.74
72900;BME280;61043;52.036;5.566;2022-07-10T04:25:06;102710.19;;;16.65;65.55
72900;BME280;61043;52.036;5.566;2022-07-10T04:27:33;102712.00;;;16.64;65.85
72900;BME280;61043;52.036;5.566;2022-07-10T04:30:00;102710.59;;;16.58;65.32
72900;BME280;61043;52.036;5.566;2022-07-10T04:32:26;102718.63;;;16.58;65.97
72900;BME280;61043;52.036;5.566;2022-07-10T04:34:54;102723.19;;;16.56;65.61
72900;BME280;61043;52.036;5.566;2022-07-10T04:37:21;102710.47;;;16.60;66.34
72900;BME280;61043;52.036;5.566;2022-07-10T04:39:48;102695.31;;;16.46;66.13
72900;BME280;61043;52.036;5.566;2022-07-10T04:42:14;102699.41;;;16.52;66.35
72900;BME280;61043;52.036;5.566;2022-07-10T04:44:41;102712.31;;;16.59;66.20
72900;BME280;61043;52.036;5.566;2022-07-10T04:47:08;102708.69;;;16.60;66.17
72900;BME280;61043;52.036;5.566;2022-07-10T04:49:34;102710.59;;;16.58;66.21
72900;BME280;61043;52.036;5.566;2022-07-10T04:52:01;102708.38;;;16.65;66.02
72900;BME280;61043;52.036;5.566;2022-07-10T04:54:28;102714.28;;;16.70;66.53
72900;BME280;61043;52.036;5.566;2022-07-10T04:56:55;102706.38;;;16.69;65.62
72900;BME280;61043;52.036;5.566;2022-07-10T04:59:21;102696.75;;;16.52;66.47
72900;BME280;61043;52.036;5.566;2022-07-10T05:01:48;102702.88;;;16.54;66.30
72900;BME280;61043;52.036;5.566;2022-07-10T05:04:15;102723.06;;;16.72;66.64
72900;BME280;61043;52.036;5.566;2022-07-10T05:06:41;102717.06;;;16.69;66.43
72900;BME280;61043;52.036;5.566;2022-07-10T05:09:08;102706.81;;;16.75;65.66
72900;BME280;61043;52.036;5.566;2022-07-10T05:11:34;102711.41;;;16.88;65.16
72900;BME280;61043;52.036;5.566;2022-07-10T05:14:01;102718.66;;;16.86;65.68
72900;BME280;61043;52.036;5.566;2022-07-10T05:16:28;102690.97;;;16.72;65.72
72900;BME280;61043;52.036;5.566;2022-07-10T05:18:54;102722.88;;;16.90;65.51
72900;BME280;61043;52.036;5.566;2022-07-10T05:21:21;102721.44;;;17.11;65.46
72900;BME280;61043;52.036;5.566;2022-07-10T05:23:48;102708.84;;;17.13;64.39
72900;BME280;61043;52.036;5.566;2022-07-10T05:26:14;102703.06;;;17.19;64.31
72900;BME280;61043;52.036;5.566;2022-07-10T05:28:41;102728.03;;;17.20;64.55
72900;BME280;61043;52.036;5.566;2022-07-10T05:31:07;102728.72;;;17.09;65.31
72900;BME280;61043;52.036;5.566;2022-07-10T05:33:34;102729.47;;;17.11;65.37
72900;BME280;61043;52.036;5.566;2022-07-10T05:36:01;102725.69;;;17.01;65.63
72900;BME280;61043;52.036;5.566;2022-07-10T05:38:27;102716.72;;;17.02;65.86
72900;BME280;61043;52.036;5.566;2022-07-10T05:40:54;102721.31;;;17.00;66.10
72900;BME280;61043;52.036;5.566;2022-07-10T05:43:21;102725.19;;;17.09;65.82
72900;BME280;61043;52.036;5.566;2022-07-10T05:45:47;102719.53;;;17.13;65.21
72900;BME280;61043;52.036;5.566;2022-07-10T05:48:17;102735.50;;;17.15;65.50
72900;BME280;61043;52.036;5.566;2022-07-10T05:50:43;102728.41;;;17.14;65.56
72900;BME280;61043;52.036;5.566;2022-07-10T05:53:10;102725.44;;;17.18;65.57
72900;BME280;61043;52.036;5.566;2022-07-10T05:55:37;102722.47;;;17.23;65.44
72900;BME280;61043;52.036;5.566;2022-07-10T05:58:03;102700.16;;;17.22;65.29
72900;BME280;61043;52.036;5.566;2022-07-10T06:00:30;102700.63;;;17.29;65.41
72900;BME280;61043;52.036;5.566;2022-07-10T06:02:56;102724.22;;;17.37;65.60
72900;BME280;61043;52.036;5.566;2022-07-10T06:05:23;102722.00;;;17.43;65.30
72900;BME280;61043;52.036;5.566;2022-07-10T06:07:49;102725.31;;;17.47;65.43
72900;BME280;61043;52.036;5.566;2022-07-10T06:10:16;102721.53;;;17.37;65.68
72900;BME280;61043;52.036;5.566;2022-07-10T06:12:43;102719.50;;;17.40;65.54
72900;BME280;61043;52.036;5.566;2022-07-10T06:15:10;102724.72;;;17.29;66.54
72900;BME280;61043;52.036;5.566;2022-07-10T06:17:43;102728.72;;;17.36;66.07
72900;BME280;61043;52.036;5.566;2022-07-10T06:20:10;102720.78;;;17.35;65.96
72900;BME280;61043;52.036;5.566;2022-07-10T06:22:37;102718.94;;;17.35;66.50
72900;BME280;61043;52.036;5.566;2022-07-10T06:25:06;102736.31;;;17.42;66.40
72900;BME280;61043;52.036;5.566;2022-07-10T06:27:33;102728.25;;;17.30;66.07
72900;BME280;61043;52.036;5.566;2022-07-10T06:30:00;102723.44;;;17.35;65.80
72900;BME280;61043;52.036;5.566;2022-07-10T06:32:27;102731.69;;;17.32;67.06
72900;BME280;61043;52.036;5.566;2022-07-10T06:34:54;102723.44;;;17.35;66.79
72900;BME280;61043;52.036;5.566;2022-07-10T06:37:21;102734.16;;;17.35;66.58
72900;BME280;61043;52.036;5.566;2022-07-10T06:39:54;102724.81;;;17.28;66.91
72900;BME280;61043;52.036;5.566;2022-07-10T06:42:21;102735.56;;;17.40;66.56
72900;BME280;61043;52.036;5.566;2022-07-10T06:44:47;102737.09;;;17.44;66.37
72900;BME280;61043;52.036;5.566;2022-07-10T06:47:17;102741.38;;;17.47;65.94
72900;BME280;61043;52.036;5.566;2022-07-10T06:50:04;102734.06;;;17.36;66.81
72900;BME280;61043;52.036;5.566;2022-07-10T06:52:33;102728.72;;;17.36;65.94
72900;BME280;61043;52.036;5.566;2022-07-10T06:55:18;102711.13;;;17.32;65.99
72900;BME280;61043;52.036;5.566;2022-07-10T06:57:46;102720.72;;;17.49;65.87
72900;BME280;61043;52.036;5.566;2022-07-10T07:00:12;102721.59;;;17.62;65.92
72900;BME280;61043;52.036;5.566;2022-07-10T07:02:39;102722.44;;;17.63;65.56
72900;BME280;61043;52.036;5.566;2022-07-10T07:05:06;102727.16;;;17.59;66.58
72900;BME280;61043;52.036;5.566;2022-07-10T07:07:35;102718.03;;;17.49;66.08
72900;BME280;61043;52.036;5.566;2022-07-10T07:10:03;102706.63;;;17.33;66.54
72900;BME280;61043;52.036;5.566;2022-07-10T07:12:29;102708.78;;;17.40;66.26
72900;BME280;61043;52.036;5.566;2022-07-10T07:14:56;102729.47;;;17.38;66.83
72900;BME280;61043;52.036;5.566;2022-07-10T07:17:25;102730.44;;;17.50;66.61
72900;BME280;61043;52.036;5.566;2022-07-10T07:20:00;102709.28;;;17.33;66.68
72900;BME280;61043;52.036;5.566;2022-07-10T07:22:45;102728.44;;;17.66;66.07
72900;BME280;61043;52.036;5.566;2022-07-10T07:25:30;102739.72;;;17.84;65.21
72900;BME280;61043;52.036;5.566;2022-07-10T07:27:57;102738.03;;;17.83;65.69
72900;BME280;61043;52.036;5.566;2022-07-10T07:30:24;102739.94;;;17.81;65.86
72900;BME280;61043;52.036;5.566;2022-07-10T07:32:50;102738.25;;;17.93;65.17
72900;BME280;61043;52.036;5.566;2022-07-10T07:35:17;102749.81;;;17.81;65.99
72900;BME280;61043;52.036;5.566;2022-07-10T07:37:49;102733.94;;;17.78;65.51
72900;BME280;61043;52.036;5.566;2022-07-10T07:40:20;102745.84;;;17.86;66.10
72900;BME280;61043;52.036;5.566;2022-07-10T07:42:50;102747.47;;;18.02;65.29
72900;BME280;61043;52.036;5.566;2022-07-10T07:45:16;102729.03;;;17.97;64.82
72900;BME280;61043;52.036;5.566;2022-07-10T07:47:45;102747.91;;;18.08;64.46
72900;BME280;61043;52.036;5.566;2022-07-10T07:50:13;102735.44;;;18.20;64.75
72900;BME280;61043;52.036;5.566;2022-07-10T07:52:40;102723.84;;;18.32;64.03
72900;BME280;61043;52.036;5.566;2022-07-10T07:55:07;102730.19;;;18.31;64.16
72900;BME280;61043;52.036;5.566;2022-07-10T07:57:34;102735.63;;;18.43;63.61
72900;BME280;61043;52.036;5.566;2022-07-10T08:00:01;102726.00;;;18.40;63.38
72900;BME280;61043;52.036;5.566;2022-07-10T08:02:28;102735.69;;;18.67;63.02
72900;BME280;61043;52.036;5.566;2022-07-10T08:04:55;102738.13;;;18.70;63.35
72900;BME280;61043;52.036;5.566;2022-07-10T08:07:22;102730.47;;;18.52;63.69
72900;BME280;61043;52.036;5.566;2022-07-10T08:09:48;102740.84;;;18.57;63.83
72900;BME280;61043;52.036;5.566;2022-07-10T08:12:15;102744.63;;;18.54;63.51
72900;BME280;61043;52.036;5.566;2022-07-10T08:14:42;102739.72;;;18.48;63.87
72900;BME280;61043;52.036;5.566;2022-07-10T08:17:09;102737.38;;;18.31;63.84
72900;BME280;61043;52.036;5.566;2022-07-10T08:19:36;102736.28;;;18.33;63.97
72900;BME280;61043;52.036;5.566;2022-07-10T08:22:02;102737.13;;;18.47;63.68
72900;BME280;61043;52.036;5.566;2022-07-10T08:24:29;102744.28;;;18.59;64.18
72900;BME280;61043;52.036;5.566;2022-07-10T08:26:55;102739.44;;;18.64;63.35
72900;BME280;61043;52.036;5.566;2022-07-10T08:29:22;102746.09;;;18.71;63.42
72900;BME280;61043;52.036;5.566;2022-07-10T08:31:49;102740.28;;;18.77;62.80
72900;BME280;61043;52.036;5.566;2022-07-10T08:34:16;102701.81;;;18.53;62.99
72900;BME280;61043;52.036;5.566;2022-07-10T08:36:42;102732.53;;;18.86;62.40
72900;BME280;61043;52.036;5.566;2022-07-10T08:39:16;102733.13;;;19.02;62.68
72900;BME280;61043;52.036;5.566;2022-07-10T08:41:47;102724.34;;;19.00;61.91
72900;BME280;61043;52.036;5.566;2022-07-10T08:44:17;102731.81;;;19.08;61.77
72900;BME280;61043;52.036;5.566;2022-07-10T08:46:44;102731.63;;;18.98;61.62
72900;BME280;61043;52.036;5.566;2022-07-10T08:49:11;102741.75;;;18.94;61.37
72900;BME280;61043;52.036;5.566;2022-07-10T08:52:07;102706.84;;;18.94;61.13
72900;BME280;61043;52.036;5.566;2022-07-10T08:54:34;102724.81;;;19.29;61.35
72900;BME280;61043;52.036;5.566;2022-07-10T08:57:03;102727.78;;;19.37;60.79
72900;BME280;61043;52.036;5.566;2022-07-10T08:59:30;102720.88;;;19.57;59.94
72900;BME280;61043;52.036;5.566;2022-07-10T09:01:58;102694.03;;;19.57;59.89
72900;BME280;61043;52.036;5.566;2022-07-10T09:04:26;102711.56;;;19.85;59.21
72900;BME280;61043;52.036;5.566;2022-07-10T09:06:54;102718.78;;;19.96;59.29
72900;BME280;61043;52.036;5.566;2022-07-10T09:09:22;102718.28;;;19.80;59.83
72900;BME280;61043;52.036;5.566;2022-07-10T09:11:55;102701.22;;;19.57;59.81
72900;BME280;61043;52.036;5.566;2022-07-10T09:14:25;102720.84;;;19.70;59.95
72900;BME280;61043;52.036;5.566;2022-07-10T09:17:01;102722.00;;;19.66;60.43
72900;BME280;61043;52.036;5.566;2022-07-10T09:19:28;102715.00;;;19.88;59.86
72900;BME280;61043;52.036;5.566;2022-07-10T09:22:04;102722.34;;;20.08;58.94
72900;BME280;61043;52.036;5.566;2022-07-10T09:24:44;102715.28;;;20.18;58.77
72900;BME280;61043;52.036;5.566;2022-07-10T09:27:14;102726.03;;;20.29;57.97
72900;BME280;61043;52.036;5.566;2022-07-10T09:29:51;102712.56;;;20.41;57.19
72900;BME280;61043;52.036;5.566;2022-07-10T09:32:23;102714.88;;;20.23;57.15
72900;BME280;61043;52.036;5.566;2022-07-10T09:34:51;102724.78;;;20.34;57.58
72900;BME280;61043;52.036;5.566;2022-07-10T09:37:41;102718.78;;;20.41;57.53
72900;BME280;61043;52.036;5.566;2022-07-10T09:40:09;102715.50;;;20.60;56.83
72900;BME280;61043;52.036;5.566;2022-07-10T09:42:42;102711.34;;;20.56;56.66
72900;BME280;61043;52.036;5.566;2022-07-10T09:50:29;102686.00;;;20.47;56.65
72900;BME280;61043;52.036;5.566;2022-07-10T09:55:25;102691.69;;;20.88;56.42
72900;BME280;61043;52.036;5.566;2022-07-10T09:58:00;102667.72;;;21.17;56.11
72900;BME280;61043;52.036;5.566;2022-07-10T10:00:39;102680.94;;;21.41;54.55
72900;BME280;61043;52.036;5.566;2022-07-10T10:03:09;102674.63;;;21.73;54.31
72900;BME280;61043;52.036;5.566;2022-07-10T10:05:42;102686.56;;;21.80;54.18
72900;BME280;61043;52.036;5.566;2022-07-10T10:08:17;102684.84;;;21.48;54.58
72900;BME280;61043;52.036;5.566;2022-07-10T10:10:49;102690.50;;;21.66;53.60
72900;BME280;61043;52.036;5.566;2022-07-10T10:13:19;102681.06;;;21.60;54.57
72900;BME280;61043;52.036;5.566;2022-07-10T10:15:47;102679.03;;;21.53;54.61
72900;BME280;61043;52.036;5.566;2022-07-10T10:18:20;102659.03;;;21.34;55.39
72900;BME280;61043;52.036;5.566;2022-07-10T10:20:47;102682.84;;;21.50;55.19
72900;BME280;61043;52.036;5.566;2022-07-10T10:23:19;102680.88;;;21.52;54.68
72900;BME280;61043;52.036;5.566;2022-07-10T10:25:56;102667.69;;;21.80;54.63
72900;BME280;61043;52.036;5.566;2022-07-10T10:28:25;102685.34;;;21.94;54.27
72900;BME280;61043;52.036;5.566;2022-07-10T10:30:59;102680.16;;;22.33;53.04
72900;BME280;61043;52.036;5.566;2022-07-10T10:36:05;102689.56;;;21.87;53.63
72900;BME280;61043;52.036;5.566;2022-07-10T10:41:36;102685.50;;;21.41;55.47
72900;BME280;61043;52.036;5.566;2022-07-10T10:44:24;102693.31;;;21.44;55.66
72900;BME280;61043;52.036;5.566;2022-07-10T10:46:55;102694.69;;;21.38;54.94
72900;BME280;61043;52.036;5.566;2022-07-10T10:49:52;102676.56;;;21.71;54.61
72900;BME280;61043;52.036;5.566;2022-07-10T10:52:20;102676.25;;;21.85;53.46
72900;BME280;61043;52.036;5.566;2022-07-10T10:55:08;102668.59;;;21.90;53.83
72900;BME280;61043;52.036;5.566;2022-07-10T10:57:37;102668.25;;;22.14;53.19
72900;BME280;61043;52.036;5.566;2022-07-10T11:00:32;102656.88;;;22.41;52.87
72900;BME280;61043;52.036;5.566;2022-07-10T11:03:14;102671.94;;;22.54;52.15
72900;BME280;61043;52.036;5.566;2022-07-10T11:05:42;102660.00;;;22.46;51.86
72900;BME280;61043;52.036;5.566;2022-07-10T11:08:10;102675.84;;;22.20;52.65
72900;BME280;61043;52.036;5.566;2022-07-10T11:10:39;102672.59;;;21.96;53.48
72900;BME280;61043;52.036;5.566;2022-07-10T11:13:17;102674.34;;;21.76;54.23
72900;BME280;61043;52.036;5.566;2022-07-10T11:16:14;102674.56;;;21.42;55.19
72900;BME280;61043;52.036;5.566;2022-07-10T11:18:44;102684.09;;;21.46;55.10
72900;BME280;61043;52.036;5.566;2022-07-10T11:21:23;102673.50;;;21.54;55.23
72900;BME280;61043;52.036;5.566;2022-07-10T11:23:56;102674.06;;;21.79;55.30
72900;BME280;61043;52.036;5.566;2022-07-10T11:26:42;102668.84;;;21.56;55.25
72900;BME280;61043;52.036;5.566;2022-07-10T11:29:17;102674.78;;;21.81;54.90
72900;BME280;61043;52.036;5.566;2022-07-10T11:31:52;102683.88;;;21.80;54.62
72900;BME280;61043;52.036;5.566;2022-07-10T11:34:21;102681.31;;;21.78;54.10
72900;BME280;61043;52.036;5.566;2022-07-10T11:36:48;102665.72;;;21.82;54.56
72900;BME280;61043;52.036;5.566;2022-07-10T11:39:14;102675.53;;;21.83;54.75
72900;BME280;61043;52.036;5.566;2022-07-10T11:41:45;102677.59;;;21.70;55.31
72900;BME280;61043;52.036;5.566;2022-07-10T11:44:16;102669.03;;;21.65;55.33
72900;BME280;61043;52.036;5.566;2022-07-10T11:46:44;102679.72;;;21.76;55.14
72900;BME280;61043;52.036;5.566;2022-07-10T11:49:11;102672.81;;;21.83;54.51
72900;BME280;61043;52.036;5.566;2022-07-10T11:51:42;102661.63;;;21.88;54.43
72900;BME280;61043;52.036;5.566;2022-07-10T11:54:10;102677.72;;;21.99;54.33
72900;BME280;61043;52.036;5.566;2022-07-10T11:56:41;102666.34;;;21.95;54.68
72900;BME280;61043;52.036;5.566;2022-07-10T11:59:11;102669.06;;;21.95;54.17
72900;BME280;61043;52.036;5.566;2022-07-10T12:01:48;102660.81;;;21.97;54.38
72900;BME280;61043;52.036;5.566;2022-07-10T12:04:17;102641.41;;;21.72;54.13
72900;BME280;61043;52.036;5.566;2022-07-10T12:06:46;102667.25;;;22.06;54.05
72900;BME280;61043;52.036;5.566;2022-07-10T12:09:17;102659.16;;;22.15;53.52
72900;BME280;61043;52.036;5.566;2022-07-10T12:11:57;102648.72;;;22.22;52.64
72900;BME280;61043;52.036;5.566;2022-07-10T12:14:25;102652.06;;;22.45;52.64
72900;BME280;61043;52.036;5.566;2022-07-10T12:16:53;102639.69;;;22.62;52.09
72900;BME280;61043;52.036;5.566;2022-07-10T12:19:23;102653.38;;;22.89;50.96
72900;BME280;61043;52.036;5.566;2022-07-10T12:21:51;102641.44;;;22.73;49.53
72900;BME280;61043;52.036;5.566;2022-07-10T12:24:23;102647.13;;;22.89;50.25
72900;BME280;61043;52.036;5.566;2022-07-10T12:26:50;102655.09;;;23.00;50.34
72900;BME280;61043;52.036;5.566;2022-07-10T12:29:23;102645.41;;;22.88;49.85
72900;BME280;61043;52.036;5.566;2022-07-10T12:31:53;102642.00;;;22.76;50.32
72900;BME280;61043;52.036;5.566;2022-07-10T12:34:33;102652.38;;;22.71;50.38
72900;BME280;61043;52.036;5.566;2022-07-10T12:37:06;102650.50;;;22.42;50.85
72900;BME280;61043;52.036;5.566;2022-07-10T12:39:36;102647.25;;;22.58;50.29
72900;BME280;61043;52.036;5.566;2022-07-10T12:42:05;102642.00;;;22.76;50.29
72900;BME280;61043;52.036;5.566;2022-07-10T12:44:41;102650.41;;;23.12;49.59
72900;BME280;61043;52.036;5.566;2022-07-10T12:47:10;102650.97;;;23.35;48.75
72900;BME280;61043;52.036;5.566;2022-07-10T12:49:48;102653.34;;;23.48;48.59
72900;BME280;61043;52.036;5.566;2022-07-10T12:55:11;102651.13;;;23.81;48.42
72900;BME280;61043;52.036;5.566;2022-07-10T12:57:56;102660.50;;;24.24;47.27
72900;BME280;61043;52.036;5.566;2022-07-10T13:00:29;102651.41;;;23.87;47.73
72900;BME280;61043;52.036;5.566;2022-07-10T13:03:08;102646.09;;;23.95;47.64
72900;BME280;61043;52.036;5.566;2022-07-10T13:05:41;102645.81;;;23.89;48.07
72900;BME280;61043;52.036;5.566;2022-07-10T13:08:21;102642.34;;;24.06;47.02
72900;BME280;61043;52.036;5.566;2022-07-10T13:10:53;102642.28;;;23.88;47.49
72900;BME280;61043;52.036;5.566;2022-07-10T13:13:19;102632.81;;;23.55;47.13
72900;BME280;61043;52.036;5.566;2022-07-10T13:15:47;102640.66;;;23.58;46.54
72900;BME280;61043;52.036;5.566;2022-07-10T13:18:18;102625.94;;;23.80;45.94